Time;durP1;ratioP1;P1;durP2;ratioP2;P2;SDS_P1;SDS_P2;PMS_P1;PMS_P2;Temp;Humidity;BMP_temperature;BMP_pressure;BME280_temperature;BME280_humidity;BME280_pressure;Samples;Min_cycle;Max_cycle;Signal;HPM_P1;HPM_P2
2023/12/19 00:01:47;;;;;;;33.92;16.83;;;;;;;6.45;100.00;101991.31;4933012;28;20034;-76
2023/12/19 00:04:14;;;;;;;32.30;17.48;;;;;;;6.48;100.00;102001.53;4962766;28;20066;-79
2023/12/19 00:06:41;;;;;;;33.85;17.80;;;;;;;6.46;100.00;101981.50;4947491;28;20026;-79
2023/12/19 00:09:06;;;;;;;33.75;16.90;;;;;;;6.46;100.00;101976.16;4942070;28;20493;-78
2023/12/19 00:11:33;;;;;;;28.83;17.02;;;;;;;6.47;100.00;101977.78;4954098;28;20052;-79
2023/12/19 00:14:02;;;;;;;32.33;17.30;;;;;;;6.46;100.00;101976.16;4924387;28;20110;-80
2023/12/19 00:16:32;;;;;;;35.40;18.00;;;;;;;6.46;100.00;101973.50;4962213;28;20502;-80
2023/12/19 00:18:58;;;;;;;32.78;18.45;;;;;;;6.48;100.00;101979.44;4929128;28;20046;-79
2023/12/19 00:21:24;;;;;;;39.38;19.98;;;;;;;6.45;100.00;101985.19;4948193;28;20517;-79
2023/12/19 00:23:50;;;;;;;35.85;17.92;;;;;;;6.40;100.00;101988.47;4948131;28;20043;-78
2023/12/19 00:26:16;;;;;;;38.97;18.92;;;;;;;6.41;100.00;101999.94;4943787;28;20038;-82
2023/12/19 00:28:43;;;;;;;35.58;16.77;;;;;;;6.39;100.00;101986.03;4933009;28;20342;-79
2023/12/19 00:31:19;;;;;;;36.35;17.85;;;;;;;6.39;100.00;101970.06;4947922;28;20034;-79
2023/12/19 00:33:46;;;;;;;35.80;17.70;;;;;;;6.35;100.00;101969.66;4959606;28;20558;-81
2023/12/19 00:36:23;;;;;;;33.45;17.70;;;;;;;6.35;100.00;101984.81;4958830;28;20027;-80
2023/12/19 00:38:51;;;;;;;31.30;16.48;;;;;;;6.37;100.00;101972.09;4957162;28;20050;-80
2023/12/19 00:41:17;;;;;;;31.38;17.02;;;;;;;6.34;100.00;101973.34;4958328;28;20046;-77
2023/12/19 00:43:46;;;;;;;33.45;16.90;;;;;;;6.36;100.00;101971.28;4925501;28;20042;-73
2023/12/19 00:46:12;;;;;;;32.83;15.90;;;;;;;6.37;100.00;101964.13;4946219;28;20666;-77
2023/12/19 00:48:38;;;;;;;34.80;17.23;;;;;;;6.38;100.00;101968.44;4948356;28;20659;-79
2023/12/19 00:51:10;;;;;;;28.95;14.90;;;;;;;6.35;100.00;101960.84;4962939;28;20517;-77
2023/12/19 00:53:37;;;;;;;27.77;14.10;;;;;;;6.34;100.00;101964.53;4978999;28;20046;-77
2023/12/19 00:56:08;;;;;;;27.58;14.70;;;;;;;6.33;100.00;101954.94;4964726;28;20133;-77
2023/12/19 00:58:38;;;;;;;28.30;14.27;;;;;;;6.34;100.00;101945.91;4938357;28;20039;-77
2023/12/19 01:01:05;;;;;;;26.50;13.35;;;;;;;6.32;100.00;101940.81;4941755;28;20043;-79
2023/12/19 01:03:37;;;;;;;23.73;13.70;;;;;;;6.34;100.00;101959.22;4957155;28;20129;-78
2023/12/19 01:06:03;;;;;;;23.05;13.73;;;;;;;6.36;100.00;101954.50;4964114;28;20049;-79
2023/12/19 01:08:30;;;;;;;22.90;11.60;;;;;;;6.37;100.00;101962.28;4924474;28;20039;-82
2023/12/19 01:10:56;;;;;;;23.95;13.30;;;;;;;6.39;100.00;101962.06;4930662;28;20073;-80
2023/12/19 01:13:25;;;;;;;23.05;12.52;;;;;;;6.37;100.00;101964.13;4929566;28;20250;-77
2023/12/19 01:15:51;;;;;;;20.98;12.35;;;;;;;6.38;100.00;101963.09;4946681;28;20035;-81
2023/12/19 01:18:17;;;;;;;23.42;12.65;;;;;;;6.40;100.00;101958.38;4945185;28;20031;-77
2023/12/19 01:20:45;;;;;;;19.33;11.43;;;;;;;6.41;100.00;101958.16;4940369;28;20037;-79
2023/12/19 01:23:11;;;;;;;20.77;12.35;;;;;;;6.42;100.00;101943.81;4964678;28;20101;-79
2023/12/19 01:25:39;;;;;;;24.48;12.32;;;;;;;6.43;100.00;101955.28;4913844;28;20047;-78
2023/12/19 01:28:05;;;;;;;20.85;11.90;;;;;;;6.41;100.00;101952.03;4945922;28;20455;-80
2023/12/19 01:30:31;;;;;;;25.00;13.10;;;;;;;6.42;100.00;101953.66;4940135;28;20046;-74
2023/12/19 01:32:57;;;;;;;19.13;11.52;;;;;;;6.41;100.00;101944.84;4942425;28;20035;-74
2023/12/19 01:35:23;;;;;;;23.80;13.10;;;;;;;6.45;100.00;101955.91;4962297;28;20050;-74
2023/12/19 01:37:49;;;;;;;23.20;13.05;;;;;;;6.43;100.00;101953.44;4960222;28;20038;-79
2023/12/19 01:40:16;;;;;;;23.90;12.68;;;;;;;6.44;100.00;101941.78;4958020;28;20130;-79
2023/12/19 01:42:42;;;;;;;22.98;12.73;;;;;;;6.41;100.00;101926.22;4928888;28;20125;-76
2023/12/19 01:45:11;;;;;;;21.75;12.63;;;;;;;6.45;100.00;101942.59;4963035;28;20457;-76
2023/12/19 01:47:44;;;;;;;23.50;12.25;;;;;;;6.45;100.00;101923.97;4961427;28;20035;-77
2023/12/19 01:50:18;;;;;;;22.73;11.95;;;;;;;6.45;100.00;101922.13;4962162;28;20128;-79
2023/12/19 01:52:57;;;;;;;20.27;11.50;;;;;;;6.47;100.00;101913.94;4930548;28;20046;-78
2023/12/19 01:55:27;;;;;;;26.65;12.73;;;;;;;6.45;100.00;101894.72;4942232;28;20042;-74
2023/12/19 01:57:56;;;;;;;21.92;12.10;;;;;;;6.45;100.00;101900.03;4959505;28;20034;-77
2023/12/19 02:00:22;;;;;;;21.80;11.77;;;;;;;6.45;100.00;101897.38;4934561;28;20070;-77
2023/12/19 02:02:50;;;;;;;;;;;;;;;6.41;100.00;101880.19;4963262;28;20583;-74
2023/12/19 02:05:16;;;;;;;18.75;10.25;;;;;;;6.40;100.00;101902.50;4964741;28;20384;-74
2023/12/19 02:07:42;;;;;;;17.40;10.75;;;;;;;6.39;100.00;101903.53;4964797;28;20041;-80
2023/12/19 02:10:09;;;;;;;17.73;10.23;;;;;;;6.41;100.00;101909.44;4944154;28;20042;-80
2023/12/19 02:12:37;;;;;;;19.38;11.00;;;;;;;6.37;100.00;101902.91;4961574;28;20139;-81
2023/12/19 02:15:04;;;;;;;14.93;9.35;;;;;;;6.37;100.00;101894.94;4945844;28;20099;-80
2023/12/19 02:17:30;;;;;;;16.67;9.50;;;;;;;6.39;100.00;101879.59;4955599;28;20045;-78
2023/12/19 02:19:56;;;;;;;16.50;8.75;;;;;;;6.40;100.00;101876.72;4968076;28;20031;-81
2023/12/19 02:22:23;;;;;;;15.52;9.35;;;;;;;6.39;100.00;101890.22;4956181;28;21120;-78
2023/12/19 02:24:49;;;;;;;13.15;7.57;;;;;;;6.39;100.00;101872.41;4959370;28;20113;-78
2023/12/19 02:27:20;;;;;;;12.40;7.50;;;;;;;6.42;100.00;101876.50;4946661;28;20113;-78
2023/12/19 02:29:46;;;;;;;13.85;7.78;;;;;;;6.42;100.00;101884.47;4945756;28;20057;-78
2023/12/19 02:32:12;;;;;;;11.63;7.80;;;;;;;6.42;100.00;101887.13;4948116;28;20089;-80
2023/12/19 02:34:37;;;;;;;11.48;8.13;;;;;;;6.40;100.00;101891.84;4948218;28;20130;-78
2023/12/19 02:37:03;;;;;;;11.57;7.25;;;;;;;6.40;100.00;101882.03;4961670;28;20031;-77
2023/12/19 02:39:32;;;;;;;12.68;7.57;;;;;;;6.39;100.00;101875.09;4947977;28;20061;-80
2023/12/19 02:41:58;;;;;;;12.32;8.32;;;;;;;6.38;100.00;101867.31;4950178;28;20758;-78
2023/12/19 02:44:24;;;;;;;15.13;9.38;;;;;;;6.38;100.00;101873.47;4957451;28;20049;-78
2023/12/19 02:46:49;;;;;;;14.00;9.23;;;;;;;6.37;100.00;101873.66;4943638;28;20046;-81
2023/12/19 02:49:16;;;;;;;14.75;9.25;;;;;;;6.38;100.00;101873.47;4940400;28;20042;-78
2023/12/19 02:51:44;;;;;;;;;;;;;;;6.40;100.00;101870.56;4931650;28;20041;-82
2023/12/19 02:54:11;;;;;;;15.18;9.82;;;;;;;6.38;100.00;101851.34;4940873;28;19929;-79
2023/12/19 02:56:37;;;;;;;15.43;9.57;;;;;;;6.37;100.00;101865.66;4944241;28;20038;-79
2023/12/19 02:59:03;;;;;;;15.50;9.05;;;;;;;6.36;100.00;101859.53;4957384;28;20717;-79
2023/12/19 03:01:29;;;;;;;18.65;10.57;;;;;;;6.37;100.00;101852.34;4960271;28;20519;-80
2023/12/19 03:03:56;;;;;;;19.00;10.90;;;;;;;6.35;100.00;101857.09;4947172;28;20497;-78
2023/12/19 03:06:22;;;;;;;18.10;10.45;;;;;;;6.35;100.00;101857.09;4922939;28;20107;-77
2023/12/19 03:08:48;;;;;;;19.77;11.05;;;;;;;6.35;100.00;101849.91;4956951;28;20039;-79
2023/12/19 03:11:14;;;;;;;19.25;10.57;;;;;;;6.36;100.00;101848.06;4963706;28;20041;-79
2023/12/19 03:13:41;;;;;;;20.48;12.40;;;;;;;6.35;100.00;101846.44;4940669;28;20066;-76
2023/12/19 03:16:07;;;;;;;19.73;12.27;;;;;;;6.31;100.00;101834.63;4944102;28;20043;-76
2023/12/19 03:18:32;;;;;;;20.48;11.60;;;;;;;6.31;100.00;101831.97;4966454;28;20049;-78
2023/12/19 03:20:58;;;;;;;21.52;11.55;;;;;;;6.28;100.00;101841.16;4933157;28;20051;-79
2023/12/19 03:23:24;;;;;;;21.63;11.48;;;;;;;6.25;100.00;101837.09;4957397;28;20784;-79
2023/12/19 03:25:50;;;;;;;19.20;11.40;;;;;;;6.24;100.00;101846.13;4935052;28;20034;-77
2023/12/19 03:28:17;;;;;;;16.67;9.93;;;;;;;6.24;100.00;101851.44;4961896;28;20049;-79
2023/12/19 03:30:42;;;;;;;18.08;10.52;;;;;;;6.25;100.00;101838.94;4948112;28;20157;-77
2023/12/19 03:33:09;;;;;;;21.00;11.20;;;;;;;6.25;100.00;101833.63;4943375;28;20106;-77
2023/12/19 03:35:35;;;;;;;17.52;9.95;;;;;;;6.21;100.00;101827.91;4958321;28;20088;-79
2023/12/19 03:38:04;;;;;;;18.75;10.88;;;;;;;6.22;100.00;101832.19;4959837;28;20496;-79
2023/12/19 03:40:30;;;;;;;19.80;10.15;;;;;;;6.20;100.00;101839.56;4957508;28;20039;-76
2023/12/19 03:42:56;;;;;;;16.17;10.23;;;;;;;6.16;100.00;101827.72;4942393;28;20042;-78
2023/12/19 03:45:21;;;;;;;18.75;10.50;;;;;;;6.16;100.00;101817.09;4936126;28;20051;-76
2023/12/19 03:47:47;;;;;;;18.05;9.82;;;;;;;6.15;100.00;101827.94;4956775;28;20114;-78
2023/12/19 03:50:13;;;;;;;18.95;10.30;;;;;;;6.12;100.00;101821.22;4958273;28;20742;-78
2023/12/19 03:52:42;;;;;;;18.85;10.55;;;;;;;6.13;100.00;101817.53;4956996;28;20046;-77
2023/12/19 03:55:09;;;;;;;16.80;9.23;;;;;;;6.13;100.00;101817.53;4958104;28;20027;-78
2023/12/19 03:57:35;;;;;;;14.45;8.82;;;;;;;6.12;100.00;101829.19;4958630;28;20070;-79
2023/12/19 04:00:01;;;;;;;15.00;8.30;;;;;;;6.14;100.00;101828.97;4959695;28;20066;-81
2023/12/19 04:02:34;;;;;;;15.38;9.32;;;;;;;6.13;100.00;101820.19;4945968;28;20038;-85
2023/12/19 04:04:59;;;;;;;13.70;8.00;;;;;;;6.15;100.00;101818.13;4946523;28;20466;-80
2023/12/19 04:07:25;;;;;;;16.52;8.70;;;;;;;6.14;100.00;101815.69;4945414;28;20034;-80
2023/12/19 04:09:51;;;;;;;18.38;9.48;;;;;;;6.11;100.00;101814.28;4964870;28;20556;-79
2023/12/19 04:12:17;;;;;;;16.27;8.85;;;;;;;6.07;100.00;101812.25;4963682;28;20046;-81
2023/12/19 04:14:42;;;;;;;13.00;8.50;;;;;;;6.05;100.00;101796.50;4946575;28;20113;-79
2023/12/19 04:17:08;;;;;;;13.38;7.70;;;;;;;6.11;100.00;101797.50;4952298;28;20563;-78
2023/12/19 04:19:34;;;;;;;14.57;7.72;;;;;;;6.08;100.00;101780.09;4932881;28;20038;-81
2023/12/19 04:21:59;;;;;;;12.65;7.45;;;;;;;6.07;100.00;101780.31;4964897;28;20034;-82
2023/12/19 04:24:26;;;;;;;12.90;7.00;;;;;;;6.06;100.00;101784.84;4954188;28;20058;-81
2023/12/19 04:26:52;;;;;;;14.13;8.05;;;;;;;6.06;100.00;101787.50;4967245;28;20123;-82
2023/12/19 04:29:18;;;;;;;13.30;7.35;;;;;;;6.06;100.00;101794.66;4962937;28;20121;-81
2023/12/19 04:31:44;;;;;;;12.95;7.50;;;;;;;6.05;100.00;101790.38;4966871;28;20039;-81
2023/12/19 04:34:10;;;;;;;14.23;7.38;;;;;;;6.04;100.00;101781.59;4945143;28;20035;-80
2023/12/19 04:36:36;;;;;;;12.90;7.22;;;;;;;6.04;100.00;101776.25;4964568;28;20504;-79
2023/12/19 04:39:03;;;;;;;12.48;7.57;;;;;;;6.06;100.00;101782.19;4928769;28;20094;-79
2023/12/19 04:41:28;;;;;;;11.43;7.25;;;;;;;6.02;100.00;101773.78;4960334;28;20138;-79
2023/12/19 04:43:54;;;;;;;11.60;6.80;;;;;;;6.00;100.00;101761.75;4947491;28;20106;-79
2023/12/19 04:46:20;;;;;;;11.77;6.93;;;;;;;6.03;100.00;101764.00;4939548;28;20031;-80
2023/12/19 04:48:46;;;;;;;10.25;6.22;;;;;;;6.01;100.00;101760.72;4961916;28;20412;-78
2023/12/19 04:51:19;;;;;;;14.95;6.35;;;;;;;6.06;100.00;101768.06;4945286;28;20042;-79
2023/12/19 04:53:46;;;;;;;10.82;6.13;;;;;;;6.06;100.00;101774.19;4942619;28;20126;-77
2023/12/19 04:56:12;;;;;;;10.23;6.75;;;;;;;6.08;100.00;101761.50;4955536;28;20058;-80
2023/12/19 04:58:39;;;;;;;9.77;6.03;;;;;;;6.08;100.00;101763.34;4948186;28;20072;-77
2023/12/19 05:01:05;;;;;;;11.57;6.32;;;;;;;6.08;100.00;101760.69;4934086;28;20035;-81
2023/12/19 05:03:30;;;;;;;10.32;6.75;;;;;;;6.09;100.00;101763.13;4944366;28;20539;-80
2023/12/19 05:05:56;;;;;;;11.07;7.13;;;;;;;6.09;100.00;101762.31;4957950;28;20034;-77
2023/12/19 05:08:22;;;;;;;10.07;6.65;;;;;;;6.10;100.00;101754.13;4949888;28;20043;-80
2023/12/19 05:10:48;;;;;;;9.95;6.22;;;;;;;6.11;100.00;101750.44;4933108;28;20400;-79
2023/12/19 05:13:13;;;;;;;11.20;7.15;;;;;;;6.08;100.00;101750.84;4948702;28;20057;-81
2023/12/19 05:15:39;;;;;;;10.30;6.18;;;;;;;6.07;100.00;101748.41;4959358;28;20058;-79
2023/12/19 05:18:05;;;;;;;12.88;6.03;;;;;;;6.06;100.00;101736.97;4944210;28;20034;-80
2023/12/19 05:20:30;;;;;;;10.32;5.90;;;;;;;6.09;100.00;101746.34;4952994;28;20055;-80
2023/12/19 05:23:00;;;;;;;9.65;6.57;;;;;;;6.07;100.00;101738.59;4940314;28;20082;-79
2023/12/19 05:25:25;;;;;;;9.25;5.80;;;;;;;6.05;100.00;101727.38;4960911;28;20046;-80
2023/12/19 05:27:51;;;;;;;10.45;6.28;;;;;;;6.06;100.00;101722.84;4961967;28;21012;-80
2023/12/19 05:30:18;;;;;;;11.43;5.80;;;;;;;6.05;100.00;101715.91;4965170;28;20035;-81
2023/12/19 05:32:43;;;;;;;;;;;;;;;6.04;100.00;101723.09;4947957;28;20034;-81
2023/12/19 05:35:09;;;;;;;8.68;6.10;;;;;;;6.00;100.00;101712.03;4964193;28;19921;-80
2023/12/19 05:37:35;;;;;;;9.75;5.47;;;;;;;6.00;100.00;101706.72;4964424;28;20587;-81
2023/12/19 05:40:02;;;;;;;8.48;4.63;;;;;;;6.00;100.00;101705.91;4946605;28;20061;-79
2023/12/19 05:42:27;;;;;;;;;;;;;;;6.02;100.00;101709.16;4946319;28;20046;-79
2023/12/19 05:44:53;;;;;;;6.82;4.65;;;;;;;6.01;100.00;101712.84;4945687;28;19919;-79
2023/12/19 05:47:19;;;;;;;7.05;4.60;;;;;;;6.01;100.00;101712.84;4946747;28;20046;-81
2023/12/19 05:49:45;;;;;;;7.13;4.43;;;;;;;6.00;100.00;101720.03;4963311;28;20055;-79
2023/12/19 05:52:11;;;;;;;7.10;4.32;;;;;;;6.00;100.00;101717.34;4958653;28;20038;-80
2023/12/19 05:54:37;;;;;;;6.25;4.20;;;;;;;6.01;100.00;101718.19;4949847;28;20038;-76
2023/12/19 05:57:04;;;;;;;7.38;4.50;;;;;;;6.00;100.00;101717.34;4945801;28;20267;-79
2023/12/19 05:59:30;;;;;;;6.75;4.40;;;;;;;6.01;100.00;101736.78;4945436;28;20046;-80
2023/12/19 06:01:55;;;;;;;6.60;3.92;;;;;;;5.98;100.00;101734.56;4949539;28;20120;-79
2023/12/19 06:04:21;;;;;;;5.70;4.18;;;;;;;5.99;100.00;101741.50;4941505;28;20039;-78
2023/12/19 06:06:47;;;;;;;6.18;3.88;;;;;;;6.00;100.00;101729.84;4960816;28;20039;-80
2023/12/19 06:09:12;;;;;;;5.18;3.30;;;;;;;5.99;100.00;101709.59;4958786;28;20062;-79
2023/12/19 06:11:38;;;;;;;5.80;3.67;;;;;;;6.01;100.00;101707.53;4966206;28;20062;-79
2023/12/19 06:14:05;;;;;;;5.15;3.15;;;;;;;6.02;100.00;101701.19;4931124;28;20045;-79
2023/12/19 06:16:31;;;;;;;4.70;3.20;;;;;;;6.02;100.00;101704.66;4953909;28;20040;-82
2023/12/19 06:18:57;;;;;;;4.13;2.85;;;;;;;6.02;100.00;101701.19;4948767;28;20587;-79
2023/12/19 06:21:22;;;;;;;3.72;2.70;;;;;;;6.02;100.00;101703.84;4963424;28;20047;-80
2023/12/19 06:23:48;;;;;;;4.38;2.50;;;;;;;6.01;100.00;101702.22;4947565;28;20054;-80
2023/12/19 06:26:14;;;;;;;4.65;2.20;;;;;;;6.01;100.00;101707.53;4943238;28;20039;-80
2023/12/19 06:28:40;;;;;;;4.28;2.30;;;;;;;5.99;100.00;101702.44;4944612;28;20094;-80
2023/12/19 06:31:06;;;;;;;3.75;2.20;;;;;;;5.96;100.00;101710.03;4960498;28;20038;-78
2023/12/19 06:33:32;;;;;;;4.82;2.22;;;;;;;5.95;100.00;101703.06;4961152;28;20073;-80
2023/12/19 06:35:58;;;;;;;3.30;2.00;;;;;;;5.91;100.00;101689.41;4962169;28;20485;-81
2023/12/19 06:38:23;;;;;;;2.80;1.85;;;;;;;5.91;100.00;101694.72;4944486;28;20046;-78
2023/12/19 06:40:49;;;;;;;2.78;1.77;;;;;;;5.92;100.00;101703.53;4946209;28;20488;-79
2023/12/19 06:43:15;;;;;;;5.72;2.28;;;;;;;5.90;100.00;101706.38;4923824;28;20465;-80
2023/12/19 06:45:42;;;;;;;2.67;1.83;;;;;;;5.88;100.00;101712.91;4948675;28;20034;-79
2023/12/19 06:48:07;;;;;;;2.25;1.45;;;;;;;5.91;100.00;101715.19;4965897;28;20041;-80
2023/12/19 06:50:34;;;;;;;2.83;1.38;;;;;;;5.90;100.00;101706.38;4945992;28;20035;-80
2023/12/19 06:53:02;;;;;;;2.50;1.30;;;;;;;5.90;100.00;101705.56;4966911;28;20043;-80
2023/12/19 06:55:30;;;;;;;3.08;1.70;;;;;;;5.92;100.00;101716.81;4944398;28;20034;-79
2023/12/19 06:57:56;;;;;;;3.67;1.42;;;;;;;5.91;100.00;101705.38;4956401;28;20073;-80
2023/12/19 07:00:22;;;;;;;1.85;1.20;;;;;;;5.90;100.00;101714.34;4928673;28;20571;-80
2023/12/19 07:02:47;;;;;;;2.60;1.60;;;;;;;5.89;100.00;101719.84;4946655;28;20047;-78
2023/12/19 07:05:13;;;;;;;3.58;1.50;;;;;;;5.91;100.00;101717.84;4959244;28;20038;-80
2023/12/19 07:07:39;;;;;;;2.58;1.80;;;;;;;5.89;100.00;101722.50;4981168;28;20039;-79
2023/12/19 07:10:05;;;;;;;2.45;1.42;;;;;;;5.88;100.00;101713.72;4928903;28;20117;-80
2023/12/19 07:12:31;;;;;;;2.72;1.50;;;;;;;5.86;100.00;101699.84;4916237;28;20225;-80
2023/12/19 07:14:56;;;;;;;4.72;1.90;;;;;;;5.88;100.00;101715.56;4926248;28;20130;-77
2023/12/19 07:17:22;;;;;;;5.13;1.85;;;;;;;5.88;100.00;101712.91;4945790;28;20039;-77
2023/12/19 07:19:48;;;;;;;2.60;1.52;;;;;;;5.88;100.00;101712.91;4946726;28;20031;-80
2023/12/19 07:22:15;;;;;;;3.28;1.83;;;;;;;5.89;100.00;101698.59;4963119;28;20030;-79
2023/12/19 07:24:41;;;;;;;2.63;1.67;;;;;;;5.91;100.00;101675.31;4921219;28;20039;-80
2023/12/19 07:27:08;;;;;;;3.47;1.55;;;;;;;5.90;100.00;101673.66;4961058;28;20030;-77
2023/12/19 07:29:39;;;;;;;3.33;1.80;;;;;;;5.90;100.00;101684.28;4944940;28;20117;-80
2023/12/19 07:32:06;;;;;;;2.70;1.80;;;;;;;5.88;100.00;101663.22;4955684;28;20096;-76
2023/12/19 07:34:32;;;;;;;;;;;;;;;5.87;100.00;101668.75;4962275;28;20636;-79
2023/12/19 07:36:57;;;;;;;2.80;1.40;;;;;;;5.87;100.00;101666.09;4961041;28;19921;-78
2023/12/19 07:39:23;;;;;;;4.13;1.60;;;;;;;5.88;100.00;101649.09;4947042;28;20034;-79
2023/12/19 07:41:49;;;;;;;1.88;1.33;;;;;;;5.86;100.00;101653.84;4964815;28;20038;-80
2023/12/19 07:44:16;;;;;;;3.25;1.40;;;;;;;5.84;100.00;101648.75;4929799;28;20031;-76
2023/12/19 07:46:43;;;;;;;2.33;1.42;;;;;;;5.82;100.00;101634.03;4963336;28;20045;-79
2023/12/19 07:49:11;;;;;;;1.83;1.20;;;;;;;5.78;100.00;101632.84;4956956;28;20509;-76
2023/12/19 07:51:37;;;;;;;2.33;1.35;;;;;;;5.81;100.00;101641.19;4963446;28;20049;-76
2023/12/19 07:54:03;;;;;;;2.22;1.25;;;;;;;5.77;100.00;101621.41;4936365;28;20741;-80
2023/12/19 07:56:29;;;;;;;2.35;1.27;;;;;;;5.79;100.00;101624.66;4961780;28;20039;-76
2023/12/19 07:58:55;;;;;;;2.40;1.70;;;;;;;5.78;100.00;101617.69;4965890;28;20037;-75
2023/12/19 08:01:21;;;;;;;1.85;1.13;;;;;;;5.78;100.00;101633.66;4968817;28;20066;-77
2023/12/19 08:03:47;;;;;;;2.70;1.10;;;;;;;5.80;100.00;101636.09;4964824;28;20094;-76
2023/12/19 08:06:13;;;;;;;2.33;1.13;;;;;;;5.78;100.00;101638.97;4963481;28;20054;-79
2023/12/19 08:08:40;;;;;;;1.65;1.08;;;;;;;5.78;100.00;101633.66;4944870;28;20038;-77
2023/12/19 08:11:06;;;;;;;2.15;1.10;;;;;;;5.80;100.00;101630.78;4944169;28;20046;-77
2023/12/19 08:13:35;;;;;;;1.92;1.00;;;;;;;5.77;100.00;101631.22;4956421;28;20067;-77
2023/12/19 08:16:00;;;;;;;2.10;1.20;;;;;;;5.80;100.00;101617.47;4947018;28;20026;-79
2023/12/19 08:18:26;;;;;;;6.18;1.00;;;;;;;5.77;100.00;101624.06;4965878;28;20049;-79
2023/12/19 08:20:54;;;;;;;2.22;1.23;;;;;;;5.80;100.00;101623.59;4962582;28;20859;-78
2023/12/19 08:23:19;;;;;;;1.90;1.40;;;;;;;5.77;100.00;101618.75;4942177;28;20035;-82
2023/12/19 08:25:47;;;;;;;3.22;1.50;;;;;;;5.77;100.00;101609.94;4959517;28;20044;-80
2023/12/19 08:28:12;;;;;;;1.98;1.10;;;;;;;5.77;100.00;101599.31;4935012;28;20417;-79
2023/12/19 08:30:42;;;;;;;1.70;0.93;;;;;;;5.76;100.00;101603.81;4927972;29;20499;-78
2023/12/19 08:33:08;;;;;;;2.63;1.13;;;;;;;5.78;100.00;101606.25;4943922;28;20046;-81
2023/12/19 08:35:34;;;;;;;2.08;1.02;;;;;;;5.77;100.00;101604.63;4947900;28;20121;-79
2023/12/19 08:38:02;;;;;;;4.75;1.40;;;;;;;5.77;100.00;101609.94;4954759;28;20081;-78
2023/12/19 08:40:27;;;;;;;2.42;1.17;;;;;;;5.75;100.00;101600.31;4947991;28;20113;-78
2023/12/19 08:42:54;;;;;;;2.03;1.35;;;;;;;5.75;100.00;101600.31;4963083;28;20031;-78
2023/12/19 08:45:22;;;;;;;2.22;1.20;;;;;;;5.78;100.00;101601.75;4959692;28;20039;-79
2023/12/19 08:47:50;;;;;;;3.05;1.30;;;;;;;5.78;100.00;101607.06;4927616;28;20041;-78
2023/12/19 08:50:18;;;;;;;1.45;0.98;;;;;;;5.78;100.00;101595.63;4958527;28;20039;-80
2023/12/19 08:52:44;;;;;;;2.40;1.20;;;;;;;5.79;100.00;101607.88;4962840;28;20134;-81
2023/12/19 08:55:11;;;;;;;2.15;1.15;;;;;;;5.80;100.00;101609.50;4928225;28;20050;-76
2023/12/19 08:57:42;;;;;;;2.17;1.02;;;;;;;5.78;100.00;101603.59;4965248;28;20515;-79
2023/12/19 09:00:13;;;;;;;2.08;1.00;;;;;;;5.78;100.00;101607.06;4931759;28;20175;-79
2023/12/19 09:02:45;;;;;;;4.53;1.00;;;;;;;5.76;100.00;101598.50;4959079;28;20027;-74
2023/12/19 09:05:14;;;;;;;2.50;1.00;;;;;;;5.78;100.00;101600.94;4960806;28;20058;-79
2023/12/19 09:07:41;;;;;;;1.40;0.93;;;;;;;5.78;100.00;101600.94;4935632;28;20031;-80
2023/12/19 09:10:07;;;;;;;1.90;1.20;;;;;;;5.77;100.00;101600.13;4961904;28;20038;-78
2023/12/19 09:12:34;;;;;;;2.22;0.70;;;;;;;5.75;100.00;101597.66;4949151;28;20499;-76
2023/12/19 09:15:02;;;;;;;2.50;1.15;;;;;;;5.76;100.00;101593.19;4963464;28;20592;-79
2023/12/19 09:17:31;;;;;;;2.33;0.90;;;;;;;5.78;100.00;101585.81;4948156;28;20473;-79
2023/12/19 09:19:57;;;;;;;1.38;0.70;;;;;;;5.79;100.00;101568.00;4945500;28;20043;-80
2023/12/19 09:22:23;;;;;;;1.10;0.80;;;;;;;5.80;100.00;101577.59;4963320;28;20815;-80
2023/12/19 09:24:48;;;;;;;1.20;0.65;;;;;;;5.78;100.00;101577.03;4947555;28;20035;-75
2023/12/19 09:27:16;;;;;;;1.00;0.52;;;;;;;5.83;100.00;101593.13;4940293;28;20038;-77
2023/12/19 09:29:42;;;;;;;1.42;0.77;;;;;;;5.83;100.00;101585.97;4946671;28;20122;-75
2023/12/19 09:32:08;;;;;;;1.83;0.95;;;;;;;5.85;100.00;101578.59;4929236;23;20158;-74
2023/12/19 09:34:34;;;;;;;0.80;0.60;;;;;;;5.88;100.00;101580.00;4915757;29;20054;-76
2023/12/19 09:37:00;;;;;;;0.90;0.70;;;;;;;5.88;100.00;101569.34;4912969;29;20115;-75
2023/12/19 09:39:25;;;;;;;2.28;0.70;;;;;;;5.88;100.00;101575.47;4876033;29;20103;-75
2023/12/19 09:41:52;;;;;;;0.95;0.75;;;;;;;5.90;100.00;101568.13;4905945;29;20543;-75
2023/12/19 09:44:18;;;;;;;2.25;0.93;;;;;;;5.91;100.00;101568.97;4887727;29;20071;-75
2023/12/19 09:46:47;;;;;;;1.30;0.70;;;;;;;5.91;100.00;101561.00;4905453;29;20059;-74
2023/12/19 09:49:13;;;;;;;0.98;0.70;;;;;;;5.90;100.00;101557.50;4908390;29;20077;-76
2023/12/19 09:51:42;;;;;;;0.90;0.60;;;;;;;5.90;100.00;101552.19;4890844;29;20070;-74
2023/12/19 09:54:08;;;;;;;3.05;0.98;;;;;;;5.93;100.00;101557.06;4909552;29;20135;-74
2023/12/19 09:56:35;;;;;;;1.15;0.60;;;;;;;5.92;100.00;101544.00;4892641;29;20682;-76
2023/12/19 09:59:03;;;;;;;1.45;0.80;;;;;;;5.94;100.00;101547.25;4911574;29;20036;-75
2023/12/19 10:01:29;;;;;;;1.23;0.60;;;;;;;5.93;100.00;101541.13;4892702;29;20036;-75
2023/12/19 10:03:55;;;;;;;1.85;0.93;;;;;;;5.95;100.00;101528.41;4900753;29;20410;-74
2023/12/19 10:06:24;;;;;;;;;;;;;;;5.99;100.00;101529.59;4905346;29;20036;-73
2023/12/19 10:08:53;;;;;;;0.73;0.45;;;;;;;5.96;100.00;101511.44;4897825;29;19929;-75
2023/12/19 10:11:21;;;;;;;0.90;0.50;;;;;;;5.99;100.00;101510.19;4906037;29;20094;-74
2023/12/19 10:13:47;;;;;;;1.48;0.60;;;;;;;5.99;100.00;101503.03;4906614;29;20149;-74
2023/12/19 10:16:17;;;;;;;1.30;0.70;;;;;;;5.98;100.00;101485.44;4907375;29;20073;-74
2023/12/19 10:18:52;;;;;;;1.20;0.57;;;;;;;5.98;100.00;101489.94;4890706;29;20044;-74
2023/12/19 10:21:21;;;;;;;1.95;0.80;;;;;;;5.95;100.00;101477.09;4890885;29;20036;-75
2023/12/19 10:23:47;;;;;;;1.23;0.70;;;;;;;5.97;100.00;101472.38;4901878;29;20041;-74
2023/12/19 10:26:13;;;;;;;1.20;0.82;;;;;;;5.99;100.00;101470.31;4903109;29;20036;-75
2023/12/19 10:28:40;;;;;;;6.47;0.93;;;;;;;6.00;100.00;101478.06;4891372;29;20502;-76
2023/12/19 10:31:05;;;;;;;1.52;1.25;;;;;;;5.99;100.00;101476.44;4903653;29;20028;-75
2023/12/19 10:33:45;;;;;;;2.13;0.65;;;;;;;6.00;100.00;101472.72;4903551;29;20051;-75
2023/12/19 10:36:31;;;;;;;1.02;0.75;;;;;;;5.99;100.00;101467.66;4904725;29;20123;-75
2023/12/19 10:38:59;;;;;;;3.35;1.10;;;;;;;6.05;100.00;101472.09;4888636;29;20052;-75
2023/12/19 10:41:32;;;;;;;1.63;1.33;;;;;;;6.06;100.00;101464.91;4884942;29;20074;-75
2023/12/19 10:43:59;;;;;;;1.10;0.85;;;;;;;6.04;100.00;101451.84;4903244;29;20036;-75
2023/12/19 10:46:27;;;;;;;1.05;0.77;;;;;;;6.04;100.00;101454.50;4900932;29;20040;-75
2023/12/19 10:48:54;;;;;;;1.30;0.90;;;;;;;6.09;100.00;101449.31;4886174;29;20773;-74
2023/12/19 10:51:29;;;;;;;1.40;0.82;;;;;;;6.09;100.00;101438.66;4885244;29;20037;-74
2023/12/19 10:54:00;;;;;;;1.95;1.00;;;;;;;6.09;100.00;101438.66;4905159;29;20513;-75
2023/12/19 10:56:34;;;;;;;1.70;1.00;;;;;;;6.11;100.00;101438.47;4904867;29;20100;-75
2023/12/19 10:59:04;;;;;;;1.92;1.42;;;;;;;6.12;100.00;101438.25;4904425;29;20040;-74
2023/12/19 11:01:37;;;;;;;1.88;1.00;;;;;;;6.11;100.00;101430.50;4891052;29;20087;-75
2023/12/19 11:04:10;;;;;;;1.70;1.42;;;;;;;6.14;100.00;101414.88;4901003;29;20080;-75
2023/12/19 11:06:39;;;;;;;2.30;1.30;;;;;;;6.17;100.00;101422.44;4905085;29;20058;-75
2023/12/19 11:09:09;;;;;;;2.13;1.67;;;;;;;6.18;100.00;101417.94;4884803;29;20053;-75
2023/12/19 11:11:38;;;;;;;1.90;1.50;;;;;;;6.15;100.00;101395.22;4907622;29;20032;-74
2023/12/19 11:14:07;;;;;;;3.13;1.88;;;;;;;6.14;100.00;101404.25;4889590;29;20038;-74
2023/12/19 11:16:48;;;;;;;1.80;1.30;;;;;;;6.15;100.00;101397.88;4907886;29;20036;-74
2023/12/19 11:19:40;;;;;;;2.10;1.40;;;;;;;6.17;100.00;101397.69;4909372;29;20063;-75
2023/12/19 11:22:13;;;;;;;2.00;1.73;;;;;;;6.16;100.00;101391.53;4907409;29;20114;-74